Thursday, March 23, 2017, 12:21 AM EDT
Back to Local

KCXY, Harrisburg Capital City

Location: New Cumberland, PA, United States Lat: 40.217
Local Time: 12:21 AM EDT ( 4:21 GMT) Lon: -76.85
Time Zone: US/Eastern Elev: 347 ft

Show me the last for .
Show Decoded

2017-03-22 23:56 METAR KCXY 230356Z AUTO 36004KT 10SM CLR M01/M17 A3049 RMK AO2 SLP329 T10061172
                 =
2017-03-22 22:56 METAR KCXY 230256Z AUTO 36005KT 10SM CLR 00/M18 A3048 RMK AO2 SLP325 T00001178
                 51027 =
2017-03-22 21:56 METAR KCXY 230156Z AUTO 34007KT 10SM CLR 01/M18 A3046 RMK AO2 SLP319 T00111178 =
2017-03-22 20:56 METAR KCXY 230056Z 01005KT 10SM CLR 02/M18 A3042 RMK AO2 SLP306 T00171178 =
2017-03-22 19:56 METAR KCXY 222356Z 36007KT 10SM CLR 03/M19 A3040 RMK AO2 SLP298 T00281189 10061
                 20028 52032 =
2017-03-22 18:56 METAR KCXY 222256Z 34013G17KT 10SM CLR 04/M18 A3036 RMK AO2 SLP287 T00441183 =
2017-03-22 17:56 METAR KCXY 222156Z 33013G19KT 10SM CLR 05/M19 A3033 RMK AO2 SLP275 T00501194 =
2017-03-22 16:56 METAR KCXY 222056Z 31017G22KT 10SM CLR 06/M19 A3030 RMK AO2 SLP264 T00611189
                 53008 =
2017-03-22 15:56 METAR KCXY 221956Z 34014G21KT 10SM CLR 06/M18 A3029 RMK AO2 SLP261 T00561183 =
2017-03-22 14:56 METAR KCXY 221856Z 35014G22KT 10SM CLR 05/M18 A3027 RMK AO2 PK WND 31031/1805
                 SLP255 T00501183 =
2017-03-22 13:56 METAR KCXY 221756Z 30017G22KT 10SM CLR 06/M16 A3028 RMK AO2 PK WND 33030/1658
                 SLP255 T00561161 10056 20022 51015 =
2017-03-22 12:56 METAR KCXY 221656Z 33016G27KT 10SM CLR 04/M17 A3028 RMK AO2 PK WND 34031/1644
                 SLP257 T00441167 =
2017-03-22 11:56 METAR KCXY 221556Z 33019G27KT 10SM CLR 03/M17 A3026 RMK AO2 PK WND 32030/1531
                 SLP251 T00331167 =
2017-03-22 10:56 METAR KCXY 221456Z 31015G26KT 10SM CLR 04/M14 A3023 RMK AO2 PK WND 31026/1454
                 SLP241 T00391139 51032 =
2017-03-22 09:56 METAR KCXY 221356Z 34014G25KT 10SM CLR 03/M13 A3021 RMK AO2 PK WND 32029/1305
                 SLP232 T00281128 =
2017-03-22 08:56 METAR KCXY 221256Z 34021G28KT 10SM CLR 03/M11 A3018 RMK AO2 PK WND 33028/1256
                 SLP224 T00281106 =
2017-03-22 07:56 METAR KCXY 221156Z 31014G19KT 10SM OVC060 03/M10 A3014 RMK AO2 SLP208 T00331100
                 10106 20028 53042 =
2017-03-22 06:56 METAR KCXY 221056Z 31013G23KT 10SM CLR 03/M10 A3010 RMK AO2 PK WND 31030/0959
                 SLP194 T00331100 =
2017-03-22 05:56 METAR KCXY 220956Z AUTO 31020G30KT 10SM CLR 04/M09 A3005 RMK AO2 PK WND
                 30034/0940 SLP178 T00441089 =
2017-03-22 04:56 METAR KCXY 220856Z AUTO 32016G23KT 10SM CLR 06/M05 A3002 RMK AO2 SLP166
                 T00561050 53031 =
2017-03-22 03:56 METAR KCXY 220756Z AUTO 31012G20KT 10SM CLR 08/M05 A2997 RMK AO2 SLP149
                 T00831050 =
2017-03-22 02:56 METAR KCXY 220656Z AUTO 30007KT 10SM BKN080 09/M06 A2994 RMK AO2 SLP139
                 T00891056 =
2017-03-22 01:56 METAR KCXY 220556Z AUTO 30011KT 10SM OVC075 11/M06 A2992 RMK AO2 SLP134
                 T01061056 10122 20067 51007 =
2017-03-22 00:56 METAR KCXY 220456Z AUTO 25004KT 10SM BKN090 07/M02 A2992 RMK AO2 SLP133
                 T00721022 401560039 =

Support USWX by starting your Amazon purchase here.